Airfield :
LOGIN :

Register | Disclaimer

   EN    FR    IT 

 










Legend :    VFR   Marginal VFR   IFR   Intensive IFR   Very Intensive IFR
Visi :
Ceiling :
>= 8 km
>= 3000ft
5 to 8 km
1000 to 3000 ft
1500m to 5 km
500 to 1000 ft
800 to 1500m
200 to 500 ft
< 800m
< 200 ft
Symbols :   Thunderstorms  Fog  Heavy snow  Heavy precipitations  Wind > 20 kt
SIGMETs :     Misc.  Thunderstorms  Icing  Turbulence  Mountain Waves  Volcanic Ashes






- Airport Elevation : 124 ft
- IATA code : RNS


LFRN - Rennes

CURRENT METAR :
  • 090630Z AUTO 19006KT CAVOK 00/M01 Q1009 NOSIG

EXPIRED METARs :
  • 090600Z AUTO 18004KT CAVOK 01/M01 Q1009 TEMPO 3000 BR
  • 090530Z AUTO 18003KT CAVOK 01/00 Q1009 TEMPO 3000 BR
  • 090500Z AUTO 18002KT CAVOK 02/00 Q1009 TEMPO 3000 BR
  • 090430Z AUTO 20003KT 9999 FEW041 02/00 Q1009 TEMPO 3000 BR
  • 090400Z AUTO 22004KT 9999 FEW040 01/M00 Q1009 NOSIG

TAF TAF LFRN
Valid from the 09 at 06:00 until the 10 at 06:00 UTC


090500Z 0906/1006 21005KT 9999 BKN030
TEMPO 0909/0913 5000 RA
BECMG 0912/0914 19010KT 5000 RA BKN007
TEMPO 0915/0920 3000 RA BKN005
BECMG 0919/0921 28015G30KT 9999 NSW BKN030
TEMPO 1000/1006 5000 SHRA BKN025TCU
ATIS : +33 2 99 67 72 50



MET'MAP, your aeronautical weather chart ! - Copyright ORBIFLY December 2007 - Disclaimer

ORBIFLY MET'MAP TEAM :

Programming & Development : Alexandra Zaïnal
Concept & original design : Baudouin d'Aumeries
Assistance for programming : Marc-Olivier Méhu
Technical & hardware support : Manuel Goepfert

Contact : metmap@orbifly.com




SOURCES & CREDITS :

   NOAA